createdAt,value
2019-02-05T00:01:49.149Z,15.33
2019-02-05T00:03:59.958Z,14.77
2019-02-05T00:06:10.868Z,15.50
2019-02-05T00:08:21.863Z,15.23
2019-02-05T00:10:32.653Z,15.03
2019-02-05T00:12:43.491Z,16.57
2019-02-05T00:14:54.279Z,16.47
2019-02-05T00:17:05.085Z,14.17
2019-02-05T00:19:15.902Z,17.70
2019-02-05T00:21:26.831Z,15.50
2019-02-05T00:23:37.634Z,15.10
2019-02-05T00:25:48.441Z,14.73
2019-02-05T00:27:59.324Z,16.30
2019-02-05T00:33:09.389Z,15.70
2019-02-05T00:35:20.188Z,17.00
2019-02-05T00:37:31.002Z,16.07
2019-02-05T00:39:41.994Z,17.13
2019-02-05T00:41:52.921Z,16.23
2019-02-05T00:44:03.713Z,16.73
2019-02-05T00:46:16.432Z,18.27
2019-02-05T00:48:27.254Z,17.80
2019-02-05T00:50:38.159Z,17.27
2019-02-05T00:52:49.071Z,16.63
2019-02-05T00:54:59.873Z,17.63
2019-02-05T00:57:10.804Z,17.93
2019-02-05T01:02:14.125Z,17.47
2019-02-05T01:04:24.943Z,16.90
2019-02-05T01:06:35.835Z,16.07
2019-02-05T01:08:46.652Z,17.53
2019-02-05T01:10:57.435Z,17.40
2019-02-05T01:13:08.365Z,17.53
2019-02-05T01:16:00.803Z,16.70
2019-02-05T01:18:11.613Z,16.43
2019-02-05T01:23:14.935Z,17.00
2019-02-05T01:25:25.726Z,17.17
2019-02-05T01:27:36.534Z,16.70
2019-02-05T01:29:49.257Z,15.13
2019-02-05T01:32:00.115Z,15.60
2019-02-05T01:34:10.915Z,16.87
2019-02-05T01:36:21.716Z,14.87
2019-02-05T01:38:32.526Z,16.50
2019-02-05T01:40:56.698Z,15.40
2019-02-05T01:43:07.548Z,15.57
2019-02-05T01:46:00.008Z,15.63
2019-02-05T01:48:11.117Z,14.23
2019-02-05T01:51:03.589Z,15.13
2019-02-05T01:53:14.383Z,15.43
2019-02-05T01:55:25.196Z,14.87
2019-02-05T01:57:36.090Z,14.27
2019-02-05T01:59:46.933Z,14.17
2019-02-05T02:01:59.645Z,13.67
2019-02-05T02:04:10.647Z,14.63
2019-02-05T02:06:21.492Z,15.30
2019-02-05T02:08:32.368Z,14.00
2019-02-05T02:10:43.295Z,15.97
2019-02-05T02:12:54.083Z,16.83
2019-02-05T02:15:46.564Z,15.40
2019-02-05T02:17:57.470Z,14.73
2019-02-05T02:20:49.925Z,14.97
2019-02-05T02:23:00.833Z,15.00
2019-02-05T02:25:53.322Z,14.77
2019-02-05T02:28:04.226Z,15.20
2019-02-05T02:30:56.703Z,15.83
2019-02-05T02:33:07.500Z,15.57
2019-02-05T02:35:18.617Z,14.77
2019-02-05T02:37:29.405Z,14.90
2019-02-05T02:39:40.204Z,15.50
2019-02-05T02:41:51.045Z,15.20
2019-02-05T02:44:01.981Z,15.40
2019-02-05T02:46:12.775Z,12.73
2019-02-05T02:48:23.581Z,14.73
2019-02-05T02:50:34.413Z,14.13
2019-02-05T02:52:45.245Z,16.63
2019-02-05T02:54:56.033Z,16.50
2019-02-05T02:57:08.759Z,15.67
2019-02-05T02:59:19.559Z,15.37
2019-02-05T03:01:30.468Z,14.43
2019-02-05T03:03:41.359Z,17.43
2019-02-05T03:05:52.166Z,14.73
2019-02-05T03:08:02.992Z,17.80
2019-02-05T03:10:55.452Z,16.30
2019-02-05T03:13:06.254Z,16.27
2019-02-05T03:15:17.215Z,16.03
2019-02-05T03:17:28.176Z,15.37
2019-02-05T03:19:38.970Z,15.60
2019-02-05T03:21:49.774Z,17.00
2019-02-05T03:24:00.575Z,17.50
2019-02-05T03:26:11.497Z,17.70
2019-02-05T03:28:24.221Z,17.20
2019-02-05T03:30:35.026Z,17.40
2019-02-05T03:32:45.853Z,16.47
2019-02-05T03:34:56.652Z,16.67
2019-02-05T03:37:07.464Z,16.07
2019-02-05T03:39:18.355Z,16.37
2019-02-05T03:41:29.284Z,16.87
2019-02-05T03:43:40.084Z,16.80
2019-02-05T03:46:32.583Z,16.07
2019-02-05T03:49:25.040Z,15.67
2019-02-05T03:52:17.807Z,15.00
2019-02-05T03:55:10.266Z,14.37
2019-02-05T03:58:03.010Z,14.57
2019-02-05T04:00:55.489Z,14.37
2019-02-05T04:03:46.373Z,14.53
2019-02-05T04:06:38.775Z,15.00
2019-02-05T04:09:29.636Z,14.60
2019-02-05T04:12:20.188Z,14.80
2019-02-05T04:15:12.723Z,15.03
2019-02-05T04:18:03.273Z,14.17
2019-02-05T04:20:55.736Z,14.50
2019-02-05T04:23:46.302Z,14.03
2019-02-05T04:26:38.776Z,14.83
2019-02-05T04:29:31.268Z,14.27
2019-02-05T04:32:21.809Z,14.33
2019-02-05T04:35:14.279Z,14.00
2019-02-05T04:38:04.823Z,15.20
2019-02-05T04:40:55.405Z,13.10
2019-02-05T04:46:43.917Z,14.03
2019-02-05T04:49:36.376Z,15.27
2019-02-05T04:52:26.948Z,14.30
2019-02-05T04:55:19.432Z,14.53
2019-02-05T04:58:09.958Z,14.20
2019-02-05T05:01:02.422Z,14.13
2019-02-05T05:03:54.875Z,14.63
2019-02-05T05:06:47.337Z,15.07
2019-02-05T05:09:39.781Z,13.33
2019-02-05T05:11:50.718Z,15.17
2019-02-05T05:14:01.678Z,14.20
2019-02-05T05:16:12.482Z,15.30
2019-02-05T05:18:23.287Z,13.93
2019-02-05T05:20:34.209Z,17.80
2019-02-05T05:22:45.120Z,16.30
2019-02-05T05:25:37.556Z,15.00
2019-02-05T05:28:30.033Z,15.10
2019-02-05T05:30:40.840Z,15.43
2019-02-05T05:32:53.575Z,14.33
2019-02-05T05:35:46.026Z,14.47
2019-02-05T05:37:56.860Z,14.20
2019-02-05T05:40:07.744Z,15.00
2019-02-05T05:42:18.585Z,14.63
2019-02-05T05:44:51.166Z,14.67
2019-02-05T05:47:02.003Z,12.73
2019-02-05T05:49:12.896Z,14.83
2019-02-05T05:51:25.601Z,15.47
2019-02-05T05:53:36.419Z,14.43
2019-02-05T05:55:47.217Z,15.63
2019-02-05T05:57:58.034Z,14.57
2019-02-05T06:00:50.483Z,13.70
2019-02-05T06:03:01.325Z,14.73
2019-02-05T06:05:55.677Z,14.67
2019-02-05T06:08:26.409Z,13.80
2019-02-05T06:10:37.236Z,13.87
2019-02-05T06:12:48.053Z,14.27
2019-02-05T06:14:58.845Z,14.50
2019-02-05T06:17:09.651Z,14.13
2019-02-05T06:19:20.589Z,13.40
2019-02-05T06:21:31.561Z,13.07
2019-02-05T06:23:42.583Z,15.47
2019-02-05T06:25:53.481Z,16.37
2019-02-05T06:30:42.979Z,15.90
2019-02-05T06:32:53.993Z,18.07
2019-02-05T06:35:46.462Z,17.33
2019-02-05T06:37:57.366Z,16.17
2019-02-05T06:40:28.082Z,17.77
2019-02-05T06:42:38.899Z,18.53
2019-02-05T06:44:49.828Z,17.43
2019-02-05T06:47:00.613Z,18.20
2019-02-05T06:49:11.430Z,19.13
2019-02-05T06:51:22.220Z,18.47
2019-02-05T06:53:33.029Z,17.57
2019-02-05T06:55:43.840Z,18.47
2019-02-05T06:57:54.642Z,17.40
2019-02-05T07:00:47.134Z,18.37
2019-02-05T07:02:58.442Z,16.53
2019-02-05T07:05:50.924Z,16.90
2019-02-05T07:08:02.049Z,15.00
2019-02-05T07:10:54.540Z,15.60
2019-02-05T07:13:46.998Z,14.00
2019-02-05T07:15:57.833Z,14.33
2019-02-05T07:18:08.604Z,17.83
2019-02-05T07:20:21.433Z,18.97
2019-02-05T07:22:32.455Z,18.67
2019-02-05T07:24:43.335Z,18.60
2019-02-05T07:26:54.160Z,18.23
2019-02-05T07:29:04.958Z,20.10
2019-02-05T07:31:15.756Z,19.07
2019-02-05T07:33:26.620Z,18.87
2019-02-05T07:35:37.428Z,19.30
2019-02-05T07:37:48.422Z,19.10
2019-02-05T07:40:01.131Z,19.03
2019-02-05T07:42:11.974Z,19.83
2019-02-05T07:44:22.766Z,20.93
2019-02-05T07:46:33.606Z,19.57
2019-02-05T07:48:44.519Z,19.20
2019-02-05T07:50:55.427Z,20.10
2019-02-05T07:53:06.249Z,18.30
2019-02-05T07:55:17.056Z,19.90
2019-02-05T07:57:29.785Z,18.37
2019-02-05T07:59:40.580Z,19.03
2019-02-05T08:01:51.416Z,20.50
2019-02-05T08:04:43.882Z,20.63
2019-02-05T08:06:54.699Z,17.67
2019-02-05T08:09:49.055Z,18.67
2019-02-05T08:11:59.991Z,17.07
2019-02-05T08:14:11.040Z,17.73
2019-02-05T08:16:21.825Z,16.63
2019-02-05T08:18:32.752Z,18.47
2019-02-05T08:20:45.473Z,17.37
2019-02-05T08:22:56.296Z,17.03
2019-02-05T08:25:48.752Z,16.03
2019-02-05T08:27:59.550Z,17.47
2019-02-05T08:30:51.981Z,17.13
2019-02-05T08:33:03.133Z,17.10
2019-02-05T08:35:55.631Z,18.33
2019-02-05T08:38:06.833Z,18.20
2019-02-05T08:40:59.293Z,17.77
2019-02-05T08:43:10.200Z,17.33
2019-02-05T08:46:02.649Z,17.00
2019-02-05T08:48:13.456Z,17.47
2019-02-05T08:51:05.909Z,18.17
2019-02-05T08:53:16.718Z,17.37
2019-02-05T08:55:30.663Z,17.27
2019-02-05T08:57:40.322Z,17.60
2019-02-05T08:59:51.149Z,17.07
2019-02-05T09:02:01.961Z,17.10
2019-02-05T09:04:12.908Z,17.30
2019-02-05T09:06:23.688Z,16.67
2019-02-05T09:08:34.524Z,16.87
2019-02-05T09:10:45.453Z,17.27
2019-02-05T09:12:58.258Z,16.20
2019-02-05T09:15:52.629Z,17.77
2019-02-05T09:18:45.072Z,17.07
2019-02-05T09:20:55.999Z,16.93
2019-02-05T09:23:06.912Z,16.77
2019-02-05T09:25:59.370Z,17.20
2019-02-05T09:28:10.168Z,15.23
2019-02-05T09:30:40.846Z,16.27
2019-02-05T09:33:33.282Z,15.30
2019-02-05T09:35:44.102Z,16.40
2019-02-05T09:37:57.749Z,16.93
2019-02-05T09:40:49.362Z,16.20
2019-02-05T09:43:00.619Z,15.20
2019-02-05T09:45:53.120Z,15.93
2019-02-05T09:48:04.232Z,15.77
2019-02-05T09:50:56.702Z,16.97
2019-02-05T09:53:07.711Z,15.93
2019-02-05T09:56:00.182Z,14.97
2019-02-05T09:58:11.033Z,14.53
2019-02-05T10:01:05.409Z,15.23
2019-02-05T10:03:16.211Z,14.73
2019-02-05T10:06:08.672Z,15.57
2019-02-05T10:08:19.468Z,15.27
2019-02-05T10:10:30.385Z,15.77
2019-02-05T10:12:41.384Z,15.30
2019-02-05T10:14:52.192Z,14.83
2019-02-05T10:17:03.103Z,14.70
2019-02-05T10:19:13.916Z,14.23
2019-02-05T10:21:24.835Z,15.27
2019-02-05T10:23:35.670Z,14.30
2019-02-05T10:25:48.603Z,14.63
2019-02-05T10:27:59.530Z,14.83
2019-02-05T10:30:51.985Z,14.90
2019-02-05T10:33:54.668Z,14.83
2019-02-05T10:35:57.180Z,13.93
2019-02-05T10:38:15.263Z,14.23
2019-02-05T10:40:26.168Z,14.53
2019-02-05T10:42:37.027Z,13.90
2019-02-05T10:44:47.815Z,13.70
2019-02-05T10:46:58.751Z,13.20
2019-02-05T10:49:09.558Z,13.90
2019-02-05T10:51:20.361Z,13.63
2019-02-05T10:53:33.099Z,12.83
2019-02-05T10:55:43.888Z,12.27
2019-02-05T10:57:54.811Z,11.53
2019-02-05T11:00:47.470Z,12.40
2019-02-05T11:03:39.958Z,10.43
2019-02-05T11:05:50.758Z,10.73
2019-02-05T11:08:01.691Z,11.47
2019-02-05T11:10:54.202Z,8.97
2019-02-05T11:13:46.667Z,10.53
2019-02-05T11:15:57.490Z,9.67
2019-02-05T11:18:08.397Z,10.10
2019-02-05T11:21:00.836Z,8.73
2019-02-05T11:23:11.755Z,9.47
2019-02-05T11:25:22.755Z,7.90
2019-02-05T11:27:33.552Z,8.40
2019-02-05T11:29:44.375Z,9.33
2019-02-05T11:31:55.175Z,10.23
2019-02-05T11:34:07.887Z,9.40
2019-02-05T11:36:18.710Z,10.03
2019-02-05T11:38:29.535Z,9.67
2019-02-05T11:40:40.462Z,11.03
2019-02-05T11:42:51.374Z,11.83
2019-02-05T11:45:43.852Z,13.30
2019-02-05T11:48:36.709Z,12.27
2019-02-05T11:50:47.528Z,11.83
2019-02-05T11:52:58.326Z,11.50
2019-02-05T11:55:50.811Z,10.97
2019-02-05T11:58:01.854Z,11.20
2019-02-05T12:00:54.415Z,11.60
2019-02-05T12:03:46.851Z,11.97
2019-02-05T12:05:57.683Z,11.30
2019-02-05T12:08:08.594Z,12.63
2019-02-05T12:10:19.431Z,11.67
2019-02-05T12:12:30.318Z,11.90
2019-02-05T12:14:41.107Z,12.00
2019-02-05T12:16:53.828Z,12.37
2019-02-05T12:19:04.619Z,12.23
2019-02-05T12:21:15.466Z,11.77
2019-02-05T12:26:18.639Z,11.80
2019-02-05T12:28:31.338Z,11.73
2019-02-05T12:30:45.303Z,10.60
2019-02-05T12:32:55.197Z,12.00
2019-02-05T12:35:06.116Z,10.90
2019-02-05T12:37:16.948Z,11.30
2019-02-05T12:39:27.747Z,10.60
2019-02-05T12:41:38.703Z,14.23
2019-02-05T12:43:49.516Z,12.00
2019-02-05T12:46:00.312Z,11.43
2019-02-05T12:48:13.269Z,11.47
2019-02-05T12:50:43.944Z,10.83
2019-02-05T12:52:54.993Z,10.93
2019-02-05T12:55:47.746Z,10.73
2019-02-05T12:57:58.637Z,10.83
2019-02-05T13:00:56.848Z,10.17
2019-02-05T13:03:02.206Z,10.90
2019-02-05T13:05:54.653Z,10.73
2019-02-05T13:08:05.814Z,9.80
2019-02-05T13:10:58.281Z,10.97
2019-02-05T13:13:09.417Z,10.73
2019-02-05T13:15:20.314Z,10.67
2019-02-05T13:17:31.137Z,12.23
2019-02-05T13:19:41.959Z,10.50
2019-02-05T13:21:52.755Z,11.20
2019-02-05T13:24:03.670Z,11.43
2019-02-05T13:26:14.567Z,9.83
2019-02-05T13:31:08.066Z,10.83
2019-02-05T13:33:17.673Z,11.47
2019-02-05T13:36:10.127Z,11.40
2019-02-05T13:38:20.954Z,10.93
2019-02-05T13:40:31.867Z,10.33
2019-02-05T13:42:42.687Z,11.80
2019-02-05T13:44:53.650Z,10.83
2019-02-05T13:47:04.546Z,10.93
2019-02-05T13:49:15.402Z,11.77
2019-02-05T13:51:26.248Z,11.27
2019-02-05T13:53:39.056Z,9.83
2019-02-05T13:55:50.174Z,10.57
2019-02-05T13:58:01.111Z,11.13
2019-02-05T14:00:53.587Z,11.77
2019-02-05T14:03:46.044Z,10.63
2019-02-05T14:05:56.994Z,11.73
2019-02-05T14:08:49.431Z,10.87
2019-02-05T14:11:00.355Z,11.50
2019-02-05T14:13:13.158Z,12.57
2019-02-05T14:16:05.636Z,12.03
2019-02-05T14:18:16.485Z,11.27
2019-02-05T14:20:27.405Z,12.43
2019-02-05T14:22:38.236Z,11.30
2019-02-05T14:24:49.070Z,11.43
2019-02-05T14:27:01.848Z,10.70
2019-02-05T14:29:12.672Z,11.17
2019-02-05T14:31:31.174Z,10.80
2019-02-05T14:33:36.435Z,11.67
2019-02-05T14:35:47.243Z,11.27
2019-02-05T14:37:58.205Z,11.27
2019-02-05T14:40:50.655Z,10.07
2019-02-05T14:43:01.505Z,10.90
2019-02-05T14:45:53.966Z,11.57
2019-02-05T14:48:46.445Z,10.53
2019-02-05T14:50:57.340Z,10.20
2019-02-05T14:53:49.841Z,9.87
2019-02-05T14:56:00.628Z,9.83
2019-02-05T14:58:53.144Z,11.17
2019-02-05T15:01:04.053Z,10.67
2019-02-05T15:03:14.883Z,11.03
2019-02-05T15:05:25.780Z,11.00
2019-02-05T15:07:36.674Z,9.57
2019-02-05T15:09:47.516Z,12.93
2019-02-05T15:11:58.329Z,11.63
2019-02-05T15:14:09.142Z,11.80
2019-02-05T15:16:19.948Z,10.57
2019-02-05T15:18:31.482Z,12.03
2019-02-05T15:21:02.300Z,9.90
2019-02-05T15:23:13.154Z,10.00
2019-02-05T15:25:24.051Z,10.93
2019-02-05T15:27:34.862Z,10.77
2019-02-05T15:29:45.670Z,11.30
2019-02-05T15:31:56.473Z,11.07
2019-02-05T15:36:31.503Z,13.00
2019-02-05T15:38:42.272Z,13.23
2019-02-05T15:40:53.175Z,10.77
2019-02-05T15:43:45.720Z,14.07
2019-02-05T15:45:56.525Z,12.87
2019-02-05T15:48:07.424Z,12.20
2019-02-05T15:50:18.365Z,11.70
2019-02-05T15:52:49.055Z,11.23
2019-02-05T15:55:00.011Z,10.23
2019-02-05T15:57:10.818Z,10.90
2019-02-05T15:59:21.630Z,11.13
2019-02-05T16:01:32.451Z,10.57
2019-02-05T16:03:43.316Z,10.97
2019-02-05T16:05:54.157Z,11.13
2019-02-05T16:08:06.887Z,11.27
2019-02-05T16:10:59.368Z,11.10
2019-02-05T16:13:10.286Z,11.47
2019-02-05T16:15:21.144Z,12.00
2019-02-05T16:17:31.904Z,11.73
2019-02-05T16:19:42.740Z,10.40
2019-02-05T16:21:55.462Z,10.47
2019-02-05T16:24:08.174Z,14.60
2019-02-05T16:26:18.999Z,12.17
2019-02-05T16:28:29.858Z,11.67
2019-02-05T16:30:40.806Z,10.43
2019-02-05T16:32:51.753Z,12.03
2019-02-05T16:35:44.224Z,11.77
2019-02-05T16:37:55.106Z,11.03
2019-02-05T16:40:47.578Z,11.27
2019-02-05T16:42:58.607Z,10.10
2019-02-05T16:45:51.145Z,9.30
2019-02-05T16:48:02.061Z,10.50
2019-02-05T16:50:54.611Z,10.87
2019-02-05T16:53:47.067Z,10.57
2019-02-05T16:55:57.888Z,9.90
2019-02-05T16:58:08.924Z,11.00
2019-02-05T17:01:01.404Z,11.50
2019-02-05T17:03:12.317Z,10.47
2019-02-05T17:06:04.786Z,11.77
2019-02-05T17:08:15.693Z,11.43
2019-02-05T17:10:26.600Z,12.10
2019-02-05T17:12:37.460Z,12.37
2019-02-05T17:14:50.174Z,12.13
2019-02-05T17:17:03.135Z,11.20
2019-02-05T17:19:14.022Z,11.87
2019-02-05T17:21:24.849Z,9.97
2019-02-05T17:23:35.699Z,10.60
2019-02-05T17:25:46.799Z,10.10
2019-02-05T17:28:39.273Z,10.63
2019-02-05T17:30:50.479Z,10.07
2019-02-05T17:33:01.442Z,10.33
2019-02-05T17:35:53.929Z,10.67
2019-02-05T17:38:46.430Z,11.37
2019-02-05T17:40:57.242Z,11.80
2019-02-05T17:43:08.066Z,10.97
2019-02-05T17:45:39.370Z,11.10
2019-02-05T17:47:50.397Z,11.27
2019-02-05T17:50:01.306Z,11.50
2019-02-05T17:52:12.126Z,10.73
2019-02-05T17:54:23.103Z,11.30
2019-02-05T17:56:33.907Z,10.57
2019-02-05T17:58:44.708Z,9.80
2019-02-05T18:03:17.632Z,9.73
2019-02-05T18:05:28.518Z,12.03
2019-02-05T18:07:41.345Z,13.90
2019-02-05T18:09:52.190Z,12.40
2019-02-05T18:12:44.655Z,11.30
2019-02-05T18:14:55.535Z,9.90
2019-02-05T18:17:06.431Z,10.40
2019-02-05T18:19:17.332Z,11.80
2019-02-05T18:21:28.366Z,11.43
2019-02-05T18:23:39.187Z,11.60
2019-02-05T18:28:07.416Z,12.40
2019-02-05T18:30:59.961Z,12.53
2019-02-05T18:33:10.880Z,12.73
2019-02-05T18:35:21.746Z,13.07
2019-02-05T18:37:34.506Z,12.17
2019-02-05T18:39:47.211Z,13.27
2019-02-05T18:41:58.167Z,12.50
2019-02-05T18:44:08.984Z,12.10
2019-02-05T18:46:19.885Z,12.60
2019-02-05T18:50:48.266Z,10.37
2019-02-05T18:52:59.347Z,11.83
2019-02-05T18:55:10.705Z,11.27
2019-02-05T18:57:23.027Z,10.33
2019-02-05T18:59:33.814Z,11.20
2019-02-05T19:01:44.859Z,11.63
2019-02-05T19:03:57.559Z,10.70
2019-02-05T19:06:08.377Z,11.47
2019-02-05T19:08:19.226Z,10.70
2019-02-05T19:11:11.675Z,10.37
2019-02-05T19:13:22.543Z,11.27
2019-02-05T19:16:15.020Z,11.03
2019-02-05T19:20:42.820Z,12.83
2019-02-05T19:22:53.722Z,13.60
2019-02-05T19:25:46.202Z,13.17
2019-02-05T19:27:57.008Z,12.63
2019-02-05T19:30:49.510Z,14.47
2019-02-05T19:33:00.408Z,13.63
2019-02-05T19:37:28.612Z,12.83
2019-02-05T19:39:39.567Z,12.83
2019-02-05T19:41:50.384Z,12.73
2019-02-05T19:44:01.239Z,13.03
2019-02-05T19:51:17.054Z,12.97
2019-02-05T19:53:27.885Z,13.33
2019-02-05T19:55:40.734Z,12.80
2019-02-05T19:57:52.519Z,13.30
2019-02-05T20:00:24.321Z,13.40
2019-02-05T20:02:35.179Z,12.33
2019-02-05T20:04:46.111Z,11.90
2019-02-05T20:06:56.906Z,12.63
2019-02-05T20:09:49.425Z,12.30
2019-02-05T20:12:00.325Z,11.13
2019-02-05T20:14:11.142Z,12.30
2019-02-05T20:16:22.012Z,14.17
2019-02-05T20:18:32.935Z,12.90
2019-02-05T20:20:43.858Z,11.63
2019-02-05T20:22:54.782Z,12.07
2019-02-05T20:25:47.328Z,11.70
2019-02-05T20:27:58.162Z,11.20
2019-02-05T20:30:50.638Z,12.27
2019-02-05T20:33:01.460Z,15.63
2019-02-05T20:35:14.274Z,15.33
2019-02-05T20:37:25.161Z,14.07
2019-02-05T20:39:35.963Z,13.00
2019-02-05T20:41:46.886Z,13.70
2019-02-05T20:43:57.771Z,13.27
2019-02-05T20:46:08.601Z,15.57
2019-02-05T20:48:19.446Z,13.70
2019-02-05T20:50:30.255Z,17.00
2019-02-05T20:52:43.288Z,16.77
2019-02-05T20:54:56.116Z,15.67
2019-02-05T20:57:06.988Z,15.67
2019-02-05T20:59:17.769Z,16.60
2019-02-05T21:01:28.569Z,16.33
2019-02-05T21:03:39.388Z,14.77
2019-02-05T21:05:50.195Z,13.33
2019-02-05T21:08:01.039Z,11.60
2019-02-05T21:10:31.735Z,12.83
2019-02-05T21:12:42.563Z,11.97
2019-02-05T21:14:53.371Z,11.33
2019-02-05T21:17:04.365Z,12.90
2019-02-05T21:19:58.831Z,13.67
2019-02-05T21:22:09.638Z,12.80
2019-02-05T21:24:20.552Z,13.17
2019-02-05T21:26:31.387Z,12.93
2019-02-05T21:28:42.262Z,13.60
2019-02-05T21:30:53.068Z,13.40
2019-02-05T21:33:05.774Z,13.23
2019-02-05T21:35:36.842Z,13.23
2019-02-05T21:37:47.658Z,13.07
2019-02-05T21:40:02.441Z,13.20
2019-02-05T21:42:13.223Z,13.17
2019-02-05T21:44:24.023Z,14.03
2019-02-05T21:46:34.842Z,13.93
2019-02-05T21:48:45.698Z,14.50
2019-02-05T21:50:56.548Z,13.83
2019-02-05T21:53:07.416Z,14.40
2019-02-05T21:55:59.871Z,13.77
2019-02-05T21:58:12.532Z,15.83
2019-02-05T22:00:43.445Z,18.23
2019-02-05T22:02:54.620Z,15.80
2019-02-05T22:05:47.234Z,15.10
2019-02-05T22:07:58.199Z,14.57
2019-02-05T22:10:50.738Z,15.40
2019-02-05T22:13:01.640Z,14.27
2019-02-05T22:15:56.011Z,15.60
2019-02-05T22:18:06.831Z,14.73
2019-02-05T22:20:37.511Z,14.73
2019-02-05T22:22:48.766Z,15.27
2019-02-05T22:27:40.753Z,15.07
2019-02-05T22:29:51.547Z,15.33
2019-02-05T22:32:02.570Z,17.63
2019-02-05T22:34:13.393Z,17.57
2019-02-05T22:36:24.181Z,16.70
2019-02-05T22:38:35.015Z,16.27
2019-02-05T22:40:45.798Z,15.83
2019-02-05T22:42:58.571Z,16.93
2019-02-05T22:45:51.000Z,16.53
2019-02-05T22:48:01.916Z,14.90
2019-02-05T22:50:54.382Z,16.13
2019-02-05T22:53:47.154Z,15.83
2019-02-05T22:55:57.949Z,16.17
2019-02-05T22:58:50.417Z,16.73
2019-02-05T23:01:42.902Z,15.80
2019-02-05T23:04:35.374Z,17.23
2019-02-05T23:07:27.825Z,17.10
2019-02-05T23:10:20.285Z,15.50
2019-02-05T23:13:12.740Z,15.27
2019-02-05T23:15:23.666Z,16.00
2019-02-05T23:17:34.517Z,16.47
2019-02-05T23:19:45.313Z,17.97
2019-02-05T23:21:56.205Z,18.50
2019-02-05T23:24:07.108Z,16.63
2019-02-05T23:26:17.936Z,16.70
2019-02-05T23:28:28.855Z,17.50
2019-02-05T23:30:39.769Z,15.47
2019-02-05T23:32:52.553Z,15.73
2019-02-05T23:35:45.015Z,14.70
2019-02-05T23:37:55.846Z,15.00
2019-02-05T23:40:48.274Z,15.63
2019-02-05T23:42:59.094Z,13.67
2019-02-05T23:45:29.780Z,15.00
2019-02-05T23:47:40.579Z,14.60
2019-02-05T23:49:51.403Z,13.70
2019-02-05T23:52:02.505Z,14.17
2019-02-05T23:54:13.338Z,14.47
2019-02-05T23:56:25.567Z,16.07
2019-02-05T23:58:36.957Z,15.10
